Time;durP1;ratioP1;P1;durP2;ratioP2;P2;SDS_P1;SDS_P2;PMS_P1;PMS_P2;Temp;Humidity;BMP_temperature;BMP_pressure;BME280_temperature;BME280_humidity;BME280_pressure;Samples;Min_cycle;Max_cycle;Signal;HPM_P1;HPM_P2
2021/07/22 00:00:52;;;;;;;6.47;5.80;;;16.30;63.60;;;16.03;48.74;95559.69;5021595;28;20223;-88
2021/07/22 00:03:19;;;;;;;5.57;5.00;;;16.30;63.70;;;16.04;48.54;95561.31;5006308;28;20214;-87
2021/07/22 00:05:47;;;;;;;6.68;5.75;;;16.30;63.80;;;16.04;48.98;95548.09;5022990;28;20290;-88
2021/07/22 00:08:14;;;;;;;6.82;5.97;;;16.30;64.00;;;16.05;49.49;95555.84;5039048;28;20286;-86
2021/07/22 00:10:41;;;;;;;8.73;6.15;;;16.20;64.20;;;16.07;49.53;95553.78;5045446;28;20596;-87
2021/07/22 00:13:09;;;;;;;8.45;5.93;;;16.30;64.20;;;16.08;49.74;95552.75;5022629;28;20187;-88
2021/07/22 00:15:36;;;;;;;7.05;6.35;;;16.30;64.40;;;16.11;49.77;95556.81;5022382;28;20199;-88
2021/07/22 00:18:04;;;;;;;7.38;6.38;;;16.30;64.50;;;16.08;49.93;95549.31;5021649;28;20219;-88
2021/07/22 00:20:31;;;;;;;7.90;5.72;;;16.30;64.70;;;16.07;50.39;95553.78;5014539;28;20223;-88
2021/07/22 00:22:58;;;;;;;8.35;6.60;;;16.30;64.60;;;16.07;50.68;95550.31;4986421;28;20200;-87
2021/07/22 00:25:25;;;;;;;6.75;6.05;;;16.30;64.90;;;16.06;50.67;95552.13;5004494;28;20216;-87
2021/07/22 00:27:53;;;;;;;10.63;6.88;;;16.30;64.80;;;16.02;50.63;95548.31;4986772;28;20219;-87
2021/07/22 00:30:21;;;;;;;7.20;6.28;;;16.30;64.90;;;16.00;50.69;95545.03;5022188;28;20250;-88
2021/07/22 00:32:48;;;;;;;8.70;6.03;;;16.30;65.00;;;15.97;50.39;95545.47;5038784;28;20198;-88
2021/07/22 00:35:16;;;;;;;6.78;6.07;;;16.20;64.80;;;15.94;50.72;95545.88;5022331;28;20588;-88
2021/07/22 00:37:43;;;;;;;6.85;5.97;;;16.20;64.90;;;15.96;50.15;95547.31;5005489;28;20225;-88
2021/07/22 00:40:12;;;;;;;7.75;5.70;;;16.20;64.90;;;15.95;50.21;95550.16;5008550;28;20670;-87
2021/07/22 00:42:57;;;;;;;8.00;5.85;;;16.20;64.90;;;15.89;50.34;95543.88;5002452;28;20274;-88
2021/07/22 00:45:27;;;;;;;8.45;5.75;;;16.20;65.40;;;15.86;50.17;95544.31;5002319;28;20223;-87
2021/07/22 00:47:55;;;;;;;8.95;6.82;;;16.20;64.80;;;15.80;50.54;95545.91;5024778;28;20199;-87
2021/07/22 00:50:23;;;;;;;8.30;6.60;;;16.20;65.00;;;15.75;50.82;95543.09;5021552;28;20219;-87
2021/07/22 00:52:50;;;;;;;7.45;6.68;;;16.10;65.10;;;15.69;51.77;95536.78;5002164;28;20219;-87
2021/07/22 00:55:21;;;;;;;7.43;6.68;;;16.10;65.40;;;15.67;51.91;95540.66;5002256;28;20322;-87
2021/07/22 00:57:49;;;;;;;7.93;6.45;;;16.00;65.60;;;15.61;51.75;95544.13;5018627;28;20204;-87
2021/07/22 01:00:17;;;;;;;7.60;6.55;;;16.00;65.60;;;15.52;52.13;95531.13;4994170;28;20250;-88
2021/07/22 01:02:44;;;;;;;7.97;6.63;;;15.90;65.70;;;15.50;52.22;95533.19;5037810;28;20190;-87
2021/07/22 01:05:11;;;;;;;7.63;6.70;;;15.90;65.80;;;15.48;51.92;95534.44;5021292;28;20685;-87
2021/07/22 01:07:40;;;;;;;9.70;6.18;;;15.80;65.60;;;15.43;51.52;95539.50;5038110;28;20195;-87
2021/07/22 01:10:09;;;;;;;7.25;6.00;;;15.80;65.60;;;15.37;51.37;95535.88;5037462;28;20222;-88
2021/07/22 01:12:38;;;;;;;6.75;5.78;;;15.80;65.60;;;15.32;51.21;95546.25;5038085;28;20195;-87
2021/07/22 01:15:05;;;;;;;7.45;5.85;;;15.70;65.40;;;15.28;51.42;95539.72;5021642;28;20220;-87
2021/07/22 01:17:48;;;;;;;8.95;5.53;;;15.60;65.50;;;15.23;51.43;95543.00;5022002;28;20464;-87
2021/07/22 01:20:23;;;;;;;6.38;5.10;;;15.60;66.10;;;15.18;51.38;95543.63;5037037;28;20226;-87
2021/07/22 01:22:56;;;;;;;7.88;5.40;;;15.60;65.80;;;15.11;50.99;95537.53;5037920;28;20195;-88
2021/07/22 01:25:29;;;;;;;6.45;5.53;;;15.50;65.50;;;15.06;51.08;95542.59;5038016;28;20238;-87
2021/07/22 01:27:57;;;;;;;6.13;5.47;;;15.50;65.50;;;15.05;51.27;95544.44;5005004;28;20438;-87
2021/07/22 01:30:24;;;;;;;8.65;6.18;;;15.40;65.60;;;15.01;51.21;95542.41;5003126;28;20216;-88
2021/07/22 01:32:52;;;;;;;6.95;5.68;;;15.50;65.80;;;14.97;51.38;95535.91;5017768;28;20210;-88
2021/07/22 01:35:20;;;;;;;9.57;6.32;;;15.40;65.70;;;14.96;51.55;95531.63;5017259;28;20226;-87
2021/07/22 01:37:50;;;;;;;6.57;5.57;;;15.30;65.70;;;14.93;51.38;95532.03;5010620;28;20200;-87
2021/07/22 01:40:18;;;;;;;6.93;6.07;;;15.30;65.90;;;14.90;51.76;95535.91;5033715;28;20227;-87
2021/07/22 01:42:47;;;;;;;8.30;6.05;;;15.30;66.90;;;14.85;51.92;95536.50;5017219;28;20204;-87
2021/07/22 01:45:16;;;;;;;8.18;6.72;;;15.20;65.90;;;14.82;52.26;95533.47;5035048;28;20220;-88
2021/07/22 01:47:46;;;;;;;11.07;7.07;;;15.30;66.30;;;14.81;52.78;95535.28;5021152;28;20199;-88
2021/07/22 01:50:14;;;;;;;8.77;6.40;;;15.20;66.40;;;14.81;53.11;95537.94;5025911;28;20223;-87
2021/07/22 01:52:42;;;;;;;7.75;6.55;;;15.20;66.60;;;14.82;53.48;95539.56;5020936;28;20202;-87
2021/07/22 01:55:11;;;;;;;8.35;6.57;;;15.20;66.90;;;14.83;53.22;95538.56;5018426;28;20293;-79
2021/07/22 01:57:49;;;;;;;9.70;6.53;;;15.10;66.80;;;14.84;52.98;95531.44;5003197;28;20714;-79
2021/07/22 02:00:20;;;;;;;7.63;5.82;;;15.10;66.70;;;14.81;52.73;95529.22;5011022;28;20231;-79
2021/07/22 02:02:55;;;;;;;8.07;6.03;;;15.10;66.70;;;14.82;53.17;95528.19;5018668;28;20195;-79
2021/07/22 02:05:28;;;;;;;7.70;6.20;;;15.10;66.90;;;14.81;52.77;95529.22;5025907;28;20231;-79
2021/07/22 02:07:59;;;;;;;7.35;6.45;;;15.10;66.70;;;14.78;53.13;95524.31;5015898;28;20248;-79
2021/07/22 02:10:26;;;;;;;8.25;7.03;;;15.10;66.90;;;14.78;54.03;95524.31;5032804;28;20222;-79
2021/07/22 02:12:53;;;;;;;8.98;6.95;;;15.10;67.20;;;14.78;53.87;95526.97;4992682;28;20196;-79
2021/07/22 02:15:31;;;;;;;7.88;6.93;;;15.10;67.20;;;14.77;54.04;95526.16;5015801;28;20738;-79
2021/07/22 02:17:59;;;;;;;8.38;6.95;;;15.10;67.30;;;14.77;53.81;95523.53;5016614;28;20195;-79
2021/07/22 02:20:26;;;;;;;7.32;5.75;;;15.10;67.50;;;14.75;53.18;95525.53;5030356;28;20354;-79
2021/07/22 02:22:56;;;;;;;7.07;5.55;;;15.10;67.20;;;14.70;53.29;95515.56;5025570;28;20715;-79
2021/07/22 02:25:42;;;;;;;6.75;5.47;;;15.00;67.00;;;14.66;53.03;95519.66;5028720;28;20312;-79
2021/07/22 02:28:11;;;;;;;6.97;5.78;;;15.00;66.90;;;14.62;52.93;95517.59;5009171;28;20286;-79
2021/07/22 02:30:38;;;;;;;7.40;6.10;;;15.00;67.00;;;14.57;52.93;95507.63;5007003;28;20455;-80
2021/07/22 02:33:07;;;;;;;6.80;5.85;;;15.00;67.00;;;14.53;53.17;95516.97;4993124;28;20627;-79
2021/07/22 02:35:35;;;;;;;7.35;6.03;;;14.90;67.00;;;14.45;53.66;95510.03;5007446;28;20223;-79
2021/07/22 02:38:28;;;;;;;7.55;6.05;;;14.80;67.00;;;14.41;53.34;95507.00;5021903;28;20212;-79
2021/07/22 02:40:55;;;;;;;7.45;5.75;;;14.80;67.10;;;14.33;53.37;95511.66;5018438;28;20215;-79
2021/07/22 02:43:25;;;;;;;7.95;6.25;;;14.80;67.00;;;14.32;53.60;95512.66;5019135;28;20275;-79
2021/07/22 02:45:53;;;;;;;7.13;6.00;;;14.80;67.20;;;14.24;53.90;95506.59;5014493;28;20258;-78
2021/07/22 02:48:21;;;;;;;7.53;6.38;;;14.80;67.50;;;14.24;54.02;95516.31;5025830;28;20188;-80
2021/07/22 02:50:49;;;;;;;8.02;7.22;;;14.70;67.50;;;14.23;54.33;95514.66;5007447;28;20227;-79
2021/07/22 02:53:18;;;;;;;11.27;7.07;;;14.70;67.60;;;14.22;54.69;95513.03;4997572;28;20202;-80
2021/07/22 02:56:04;;;;;;;7.95;6.78;;;14.60;67.80;;;14.25;54.79;95515.28;5030290;28;20242;-80
2021/07/22 02:58:33;;;;;;;7.28;6.32;;;14.60;67.90;;;14.20;54.42;95507.16;5003464;28;20204;-79
2021/07/22 03:01:01;;;;;;;10.23;6.82;;;14.60;67.80;;;14.21;54.89;95520.16;5000552;28;20235;-79
2021/07/22 03:03:29;;;;;;;6.63;5.93;;;14.60;68.00;;;14.20;54.92;95523.00;4997069;28;20291;-81
2021/07/22 03:05:57;;;;;;;8.35;6.68;;;14.60;68.10;;;14.20;55.25;95518.53;5022357;28;20212;-80
2021/07/22 03:08:27;;;;;;;9.07;7.05;;;14.50;68.20;;;14.17;55.06;95516.31;5011927;28;20185;-80
2021/07/22 03:10:54;;;;;;;10.57;6.75;;;14.60;68.20;;;14.19;54.92;95516.09;5011177;28;20212;-80
2021/07/22 03:13:22;;;;;;;7.05;6.35;;;14.50;68.30;;;14.15;54.96;95518.31;5030905;28;20661;-80
2021/07/22 03:15:50;;;;;;;8.02;6.63;;;14.50;68.40;;;14.16;55.18;95522.59;5013618;28;20708;-80
2021/07/22 03:18:40;;;;;;;10.15;6.43;;;14.50;68.30;;;14.12;55.00;95510.78;5015774;28;20184;-80
2021/07/22 03:21:11;;;;;;;10.15;6.63;;;14.50;68.30;;;14.08;54.70;95513.00;5013502;28;20219;-80
2021/07/22 03:23:45;;;;;;;8.82;6.63;;;14.40;68.10;;;14.08;54.48;95512.22;5015998;28;20186;-80
2021/07/22 03:26:18;;;;;;;7.22;6.20;;;14.40;68.10;;;14.04;55.02;95518.91;5012775;28;20407;-81
2021/07/22 03:28:48;;;;;;;11.43;6.90;;;14.40;68.70;;;14.01;55.42;95514.84;5019111;28;20282;-80
2021/07/22 03:31:25;;;;;;;6.93;5.90;;;14.40;68.60;;;14.00;54.91;95528.19;5036059;28;20211;-80
2021/07/22 03:34:08;;;;;;;7.70;6.07;;;14.40;68.30;;;13.97;54.84;95533.88;5034349;28;20227;-79
2021/07/22 03:36:42;;;;;;;9.77;6.97;;;14.40;68.30;;;13.94;54.40;95537.75;5019713;28;20207;-80
2021/07/22 03:39:14;;;;;;;9.60;6.28;;;14.30;68.30;;;13.93;54.56;95539.53;4999153;28;20231;-80
2021/07/22 03:41:48;;;;;;;10.15;6.90;;;14.30;68.40;;;13.91;54.90;95540.75;5015410;28;20595;-81
2021/07/22 03:44:38;;;;;;;7.72;6.65;;;14.30;68.40;;;13.88;54.62;95536.69;5025019;28;20235;-80
2021/07/22 03:47:12;;;;;;;7.82;6.70;;;14.20;68.30;;;13.88;54.65;95541.16;5030802;28;20294;-80
2021/07/22 03:49:41;;;;;;;6.72;5.55;;;14.20;68.40;;;13.84;54.73;95540.75;5030527;28;20220;-80
2021/07/22 03:52:23;;;;;;;8.02;6.28;;;14.20;68.40;;;13.83;54.47;95547.03;5014447;28;20339;-80
2021/07/22 03:54:54;;;;;;;7.50;5.85;;;14.30;68.50;;;13.81;54.77;95538.50;5006500;28;20688;-80
2021/07/22 03:57:23;;;;;;;7.25;6.20;;;14.20;68.50;;;13.82;55.14;95539.28;5017923;28;20314;-81
2021/07/22 03:59:52;;;;;;;7.03;6.22;;;14.20;68.80;;;13.86;55.06;95541.34;5017628;28;20235;-80
2021/07/22 04:02:19;;;;;;;6.80;6.05;;;14.10;68.90;;;13.89;56.05;95542.75;5033995;28;20206;-80
2021/07/22 04:04:47;;;;;;;7.57;6.55;;;14.20;69.20;;;13.94;55.91;95545.66;5033286;28;20221;-80
2021/07/22 04:07:18;;;;;;;9.13;6.63;;;14.20;69.50;;;13.97;55.90;95539.16;5035748;28;20226;-80
2021/07/22 04:09:53;;;;;;;8.90;6.50;;;14.20;69.60;;;14.05;55.60;95546.91;5035562;28;20222;-80
2021/07/22 04:12:40;;;;;;;7.65;6.93;;;14.30;69.60;;;14.12;55.46;95533.72;5027045;28;20282;-81
2021/07/22 04:15:28;;;;;;;7.60;6.50;;;14.30;69.70;;;14.17;55.45;95539.22;5034582;28;20255;-81
2021/07/22 04:18:06;;;;;;;8.40;6.70;;;14.30;69.80;;;14.25;55.62;95546.97;5035816;28;20211;-81
2021/07/22 04:20:34;;;;;;;8.20;6.28;;;14.40;69.80;;;14.33;55.53;95544.16;5027093;28;20696;-80
2021/07/22 04:23:03;;;;;;;6.80;6.05;;;14.40;69.90;;;14.43;55.50;95543.75;5032790;28;20292;-80
2021/07/22 04:26:16;;;;;;;6.53;5.80;;;14.50;70.10;;;14.51;55.45;95548.84;5043187;28;20223;-81
2021/07/22 04:29:12;;;;;;;8.00;6.10;;;14.50;70.80;;;14.59;55.37;95547.84;5037871;28;20211;-81
2021/07/22 04:31:40;;;;;;;9.20;6.07;;;14.60;70.10;;;14.67;55.44;95546.84;5033753;28;20626;-81
2021/07/22 04:34:45;;;;;;;7.15;5.82;;;14.70;70.30;;;14.76;55.30;95543.00;4924860;29;20277;-81
2021/07/22 04:37:36;;;;;;;8.63;5.70;;;14.70;70.30;;;14.84;55.34;95545.47;4919705;29;20322;-81
2021/07/22 04:40:26;;;;;;;7.72;5.78;;;14.80;70.40;;;14.93;55.33;95545.25;5006490;28;20231;-81
2021/07/22 04:43:10;;;;;;;6.60;5.38;;;14.90;70.40;;;15.01;55.42;95539.75;4989384;28;20295;-80
2021/07/22 04:46:05;;;;;;;6.60;5.93;;;15.00;70.50;;;15.12;55.46;95551.53;5016555;28;20215;-82
2021/07/22 04:48:52;;;;;;;9.18;5.68;;;15.00;71.10;;;15.21;55.26;95545.03;5026200;28;20180;-81
2021/07/22 04:51:39;;;;;;;6.40;5.70;;;15.10;70.60;;;15.31;55.31;95556.00;5026640;28;20571;-81
2021/07/22 04:54:20;;;;;;;9.20;5.97;;;15.20;70.60;;;15.41;55.22;95549.47;5022188;28;20628;-81
2021/07/22 04:56:47;;;;;;;6.28;5.63;;;15.30;70.80;;;15.50;55.35;95546.41;5017492;28;20199;-80
2021/07/22 04:59:15;;;;;;;9.70;6.63;;;15.40;71.00;;;15.60;55.44;95535.41;5017008;28;20211;-79
2021/07/22 05:01:43;;;;;;;6.88;5.97;;;15.50;71.40;;;15.70;55.71;95540.25;5001099;28;20204;-80
2021/07/22 05:04:20;;;;;;;7.97;5.80;;;15.50;71.50;;;15.81;55.72;95538.81;5000803;28;20197;-80
2021/07/22 05:06:51;;;;;;;6.40;5.68;;;15.60;71.40;;;15.87;55.60;95532.69;5002260;28;20208;-80
2021/07/22 05:09:38;;;;;;;7.07;6.28;;;15.70;71.60;;;16.03;55.79;95541.16;5019560;28;20246;-80
2021/07/22 05:12:28;;;;;;;6.63;5.95;;;15.80;71.70;;;16.15;55.79;95548.25;5020082;28;20282;-80
2021/07/22 05:15:06;;;;;;;6.78;6.03;;;15.90;71.80;;;16.28;55.78;95547.38;5032929;28;20754;-80
2021/07/22 05:18:03;;;;;;;7.13;5.80;;;16.00;71.90;;;16.41;55.99;95537.75;4996185;28;20208;-80
2021/07/22 05:20:50;;;;;;;6.60;5.90;;;16.10;71.70;;;16.56;55.79;95537.44;5019253;28;20734;-81
2021/07/22 05:23:24;;;;;;;7.10;6.00;;;16.30;71.80;;;16.69;55.52;95545.28;5001879;28;20613;-79
2021/07/22 05:26:05;;;;;;;7.68;6.38;;;16.40;71.50;;;16.85;55.66;95548.44;5001274;28;20461;-80
2021/07/22 05:28:47;;;;;;;8.52;6.00;;;16.50;71.60;;;16.99;55.66;95547.34;5018301;28;20196;-80
2021/07/22 05:31:24;;;;;;;15.75;6.28;;;16.60;72.00;;;17.12;55.82;95549.91;5000926;28;20677;-80
2021/07/22 05:34:12;;;;;;;8.40;6.05;;;16.70;72.20;;;17.26;55.68;95555.06;5017754;28;20212;-80
2021/07/22 05:36:50;;;;;;;10.07;6.72;;;16.90;72.30;;;17.39;55.84;95552.31;4986303;28;20216;-80
2021/07/22 05:39:25;;;;;;;11.95;7.10;;;17.00;72.40;;;17.51;56.11;95560.31;5016642;28;20706;-80
2021/07/22 05:41:52;;;;;;;8.65;6.95;;;17.20;72.70;;;17.64;56.04;95551.44;5032231;28;20200;-81
2021/07/22 05:44:19;;;;;;;8.23;6.47;;;17.20;72.80;;;17.78;55.85;95560.06;5015938;28;20290;-80
2021/07/22 05:46:46;;;;;;;10.95;7.75;;;17.30;72.80;;;17.90;56.30;95568.88;5015803;28;20188;-80
2021/07/22 05:49:14;;;;;;;10.02;7.03;;;17.50;72.80;;;18.02;56.00;95570.84;4999985;28;20196;-80
2021/07/22 05:51:41;;;;;;;9.48;7.25;;;17.60;72.80;;;18.15;55.52;95560.06;5015879;28;20196;-80
2021/07/22 05:54:12;;;;;;;8.70;7.03;;;17.70;72.40;;;18.29;55.59;95555.38;4999140;28;20290;-81
2021/07/22 05:56:39;;;;;;;10.25;7.28;;;17.80;71.60;;;18.40;55.04;95562.59;5015998;28;20200;-81
2021/07/22 05:59:06;;;;;;;8.95;7.35;;;17.90;71.50;;;18.54;54.83;95557.09;4999819;28;20287;-81
2021/07/22 06:01:33;;;;;;;7.55;6.72;;;18.10;71.40;;;18.61;54.71;95555.16;5016066;28;20239;-81
2021/07/22 06:04:00;;;;;;;7.85;7.03;;;18.20;71.20;;;18.71;54.69;95554.59;5015491;28;20196;-81
2021/07/22 06:06:28;;;;;;;7.65;6.35;;;18.30;70.90;;;18.84;54.62;95551.75;5015116;28;20259;-81
2021/07/22 06:08:57;;;;;;;8.23;6.50;;;18.40;70.70;;;18.91;53.99;95550.84;4998755;28;20220;-81
2021/07/22 06:11:24;;;;;;;10.73;7.50;;;18.50;70.60;;;19.02;54.06;95560.72;4999045;28;20287;-81
2021/07/22 06:13:51;;;;;;;7.55;6.68;;;18.60;70.30;;;19.13;53.93;95564.44;4999036;28;20188;-81
2021/07/22 06:16:19;;;;;;;8.57;6.88;;;18.70;70.30;;;19.22;53.62;95565.72;5014956;28;20297;-81
2021/07/22 06:18:47;;;;;;;9.95;7.30;;;18.80;70.30;;;19.32;53.63;95563.31;4998881;28;20250;-81
2021/07/22 06:21:16;;;;;;;7.65;6.20;;;18.80;70.20;;;19.44;53.47;95557.16;5014988;28;20239;-81
2021/07/22 06:23:45;;;;;;;8.18;6.65;;;19.00;70.30;;;19.52;53.30;95556.81;4999182;28;20196;-82
2021/07/22 06:26:12;;;;;;;10.02;6.28;;;19.00;70.20;;;19.61;53.21;95554.59;4998974;28;20681;-81
2021/07/22 06:28:40;;;;;;;7.05;6.00;;;19.10;70.30;;;19.73;53.77;95549.28;4998703;28;20192;-81
2021/07/22 06:31:07;;;;;;;9.93;6.97;;;19.30;70.60;;;19.82;53.61;95548.69;4982280;28;20771;-82
2021/07/22 06:33:34;;;;;;;9.75;7.18;;;19.30;70.20;;;19.94;53.45;95553.19;4982263;28;20262;-81
2021/07/22 06:36:02;;;;;;;7.53;6.70;;;19.40;70.30;;;20.05;53.56;95547.03;5014877;28;20764;-81
2021/07/22 06:38:30;;;;;;;12.70;7.05;;;19.50;70.20;;;20.15;52.84;95547.25;4998186;28;20262;-81
2021/07/22 06:40:58;;;;;;;10.48;6.80;;;19.60;70.10;;;20.26;53.09;95537.59;4982344;28;20226;-81
2021/07/22 06:43:27;;;;;;;10.75;7.40;;;19.70;69.90;;;20.36;53.06;95544.97;4998378;28;20291;-82
2021/07/22 06:45:54;;;;;;;9.90;7.43;;;19.80;69.70;;;20.44;52.73;95536.56;4997878;28;20273;-81
2021/07/22 06:48:22;;;;;;;10.18;6.75;;;19.90;69.60;;;20.57;52.33;95540.03;4998578;28;20195;-81
2021/07/22 06:50:49;;;;;;;8.52;6.18;;;20.00;69.30;;;20.62;52.25;95532.91;5014854;28;20239;-82
2021/07/22 06:53:17;;;;;;;8.00;6.28;;;20.10;69.10;;;20.74;51.97;95532.09;4982251;28;20239;-82
2021/07/22 06:55:44;;;;;;;16.08;7.28;;;20.20;69.20;;;20.81;52.35;95537.25;5014546;28;20697;-81
2021/07/22 06:58:11;;;;;;;8.65;6.78;;;20.30;69.30;;;20.90;51.87;95533.94;4998157;28;20192;-82
2021/07/22 07:00:38;;;;;;;9.88;6.60;;;20.30;68.90;;;20.98;51.63;95524.72;4998307;28;20232;-81
2021/07/22 07:03:11;;;;;;;9.27;6.55;;;20.50;68.80;;;21.05;51.63;95527.22;4998734;28;20542;-82
2021/07/22 07:05:38;;;;;;;9.00;6.78;;;20.60;68.50;;;21.16;51.40;95531.66;4998992;28;20211;-81
2021/07/22 07:08:06;;;;;;;7.40;6.18;;;20.70;68.60;;;21.25;51.24;95532.06;4998846;28;20184;-81
2021/07/22 07:10:33;;;;;;;7.47;5.70;;;20.70;68.20;;;21.29;50.97;95533.22;4998804;28;20254;-82
2021/07/22 07:13:00;;;;;;;6.93;5.90;;;20.80;67.80;;;21.39;50.27;95536.00;4998705;28;20206;-82
2021/07/22 07:15:28;;;;;;;9.13;6.10;;;20.80;67.70;;;21.46;50.47;95538.53;5014638;28;20239;-82
2021/07/22 07:17:57;;;;;;;13.23;6.20;;;20.90;67.70;;;21.53;50.83;95530.31;4998706;28;20549;-81
2021/07/22 07:20:24;;;;;;;8.73;5.32;;;21.00;67.60;;;21.62;49.93;95528.91;4998307;28;20285;-81
2021/07/22 07:22:53;;;;;;;8.10;5.47;;;21.10;67.10;;;21.68;50.14;95525.22;5014688;28;20196;-82
2021/07/22 07:25:21;;;;;;;8.02;5.57;;;21.20;67.30;;;21.74;49.85;95529.59;4998490;28;20282;-82
2021/07/22 07:27:48;;;;;;;6.28;5.40;;;21.20;67.10;;;21.81;49.85;95534.72;5014569;28;20223;-81
2021/07/22 07:30:19;;;;;;;6.55;5.18;;;21.30;67.10;;;21.88;49.77;95529.22;4997782;28;20223;-82
2021/07/22 07:32:48;;;;;;;7.18;5.60;;;21.30;67.00;;;21.94;49.31;95525.56;5015540;28;20513;-82
2021/07/22 07:35:15;;;;;;;6.50;5.70;;;21.40;66.60;;;22.00;49.16;95535.25;4998200;28;20649;-82
2021/07/22 07:37:42;;;;;;;6.30;5.25;;;21.40;66.50;;;22.00;49.60;95521.88;5014464;28;20290;-82
2021/07/22 07:40:10;;;;;;;7.95;5.55;;;21.60;67.10;;;22.11;49.29;95524.69;4998502;28;20228;-82
2021/07/22 07:42:37;;;;;;;6.95;5.07;;;21.50;67.70;;;22.17;49.58;95524.47;4998264;28;20207;-81
2021/07/22 07:45:06;;;;;;;6.13;5.18;;;21.70;66.80;;;22.28;49.33;95522.72;5013712;28;20231;-82
2021/07/22 07:47:34;;;;;;;6.15;5.53;;;21.70;66.40;;;22.35;49.15;95518.00;4998073;28;20586;-80
2021/07/22 07:50:03;;;;;;;7.22;5.93;;;21.80;66.60;;;22.43;48.80;95519.44;5014491;28;20292;-82
2021/07/22 07:52:31;;;;;;;8.90;5.63;;;21.80;66.40;;;22.49;49.15;95510.41;4998414;28;20207;-82
2021/07/22 07:54:58;;;;;;;6.13;5.53;;;21.90;66.50;;;22.61;48.44;95512.13;5014626;28;20243;-83
2021/07/22 07:57:26;;;;;;;5.90;5.10;;;22.00;67.40;;;22.71;48.43;95513.00;4984904;28;20611;-82
2021/07/22 07:59:53;;;;;;;9.05;6.10;;;22.10;66.00;;;22.79;48.47;95505.59;5018189;28;20300;-82
2021/07/22 08:02:20;;;;;;;6.28;5.68;;;22.20;65.90;;;22.94;47.83;95513.75;5018392;28;20608;-82
2021/07/22 08:04:49;;;;;;;8.00;5.60;;;22.30;65.90;;;23.07;48.04;95506.34;5034229;28;20280;-82
2021/07/22 08:07:16;;;;;;;6.13;5.00;;;22.40;65.40;;;23.28;47.52;95507.34;5018179;28;20193;-82
2021/07/22 08:09:46;;;;;;;7.32;5.28;;;22.50;65.40;;;23.49;47.16;95518.97;5034276;28;20272;-82
2021/07/22 08:12:15;;;;;;;6.90;5.45;;;22.60;66.40;;;23.71;46.97;95520.72;5002443;28;20191;-82
2021/07/22 08:14:44;;;;;;;6.45;4.72;;;22.80;65.70;;;23.88;46.56;95518.63;5001518;28;20227;-82
2021/07/22 08:17:17;;;;;;;9.38;5.15;;;23.00;65.30;;;24.02;46.21;95508.25;5001659;28;20208;-83
2021/07/22 08:19:44;;;;;;;5.35;4.85;;;23.10;64.80;;;24.16;46.22;95507.78;5017887;28;20223;-82
2021/07/22 08:22:13;;;;;;;4.90;4.20;;;23.30;65.00;;;24.35;46.16;95511.59;5017732;28;20762;-82
2021/07/22 08:24:41;;;;;;;6.45;4.90;;;23.50;64.70;;;24.55;45.38;95505.47;5018385;28;20272;-82
2021/07/22 08:27:08;;;;;;;5.57;4.63;;;23.70;64.60;;;24.77;45.54;95507.91;4985217;28;20636;-82
2021/07/22 08:29:39;;;;;;;6.65;4.70;;;23.80;64.50;;;25.00;45.19;95507.66;5017622;28;20223;-81
2021/07/22 08:32:07;;;;;;;5.22;4.72;;;24.00;64.20;;;25.19;44.72;95495.28;5001151;28;20204;-81
2021/07/22 08:34:34;;;;;;;5.45;4.70;;;24.20;63.90;;;25.37;44.42;95501.19;4984855;28;20212;-82
2021/07/22 08:37:09;;;;;;;5.43;4.40;;;24.30;63.40;;;25.55;43.51;95497.94;5017615;28;20291;-82
2021/07/22 08:39:42;;;;;;;6.85;4.55;;;24.50;62.60;;;25.71;42.93;95497.91;5017546;28;20722;-82
2021/07/22 08:42:11;;;;;;;5.45;4.38;;;24.70;62.50;;;25.87;42.87;95499.44;5017462;28;20223;-82
2021/07/22 08:44:42;;;;;;;4.38;3.92;;;24.90;62.30;;;26.00;42.61;95502.63;5017347;28;20231;-83
2021/07/22 08:47:10;;;;;;;5.03;4.43;;;25.00;61.70;;;26.07;42.20;95491.63;5017169;28;20196;-82
2021/07/22 08:49:39;;;;;;;4.88;4.43;;;25.10;61.40;;;26.13;41.88;95496.69;5017219;28;20240;-82
2021/07/22 08:52:11;;;;;;;5.93;4.40;;;25.20;61.30;;;26.19;41.72;95495.56;5017338;28;20200;-83
2021/07/22 08:54:40;;;;;;;5.90;4.68;;;25.30;61.10;;;26.23;41.77;95490.44;5000663;28;20235;-83
2021/07/22 08:57:09;;;;;;;5.05;4.43;;;25.40;61.30;;;26.28;41.37;95486.91;5017302;28;20243;-83
2021/07/22 08:59:37;;;;;;;5.72;4.75;;;25.50;60.80;;;26.35;41.28;95485.56;5016983;28;20228;-82
2021/07/22 09:02:06;;;;;;;6.93;4.85;;;25.60;61.10;;;26.43;41.61;95483.34;5000635;28;20241;-83
2021/07/22 09:04:59;;;;;;;6.93;4.85;;;25.70;61.00;;;26.51;41.21;95483.56;4984560;28;20312;-82
2021/07/22 09:07:28;;;;;;;5.40;4.75;;;25.70;61.20;;;26.64;41.13;95486.69;5016830;28;20259;-82
2021/07/22 09:10:07;;;;;;;5.00;4.50;;;25.80;60.70;;;26.77;41.08;95478.03;5000087;28;20275;-83
2021/07/22 09:12:52;;;;;;;5.05;4.47;;;25.90;60.20;;;26.87;40.79;95474.44;5033280;28;20201;-83
2021/07/22 09:15:28;;;;;;;4.68;4.25;;;26.00;59.70;;;27.03;39.96;95480.50;5017122;28;20259;-83
2021/07/22 09:18:27;;;;;;;4.72;4.32;;;26.10;59.20;;;27.16;40.33;95470.97;5003517;28;20237;-82
2021/07/22 09:20:55;;;;;;;4.22;3.83;;;26.30;60.10;;;27.33;39.71;95471.34;5000176;28;20275;-82
2021/07/22 09:23:27;;;;;;;4.43;4.03;;;26.40;59.40;;;27.45;39.67;95470.16;5000277;28;20314;-82
2021/07/22 09:25:55;;;;;;;4.60;4.13;;;26.50;58.80;;;27.56;39.59;95470.84;5015978;28;20206;-82
2021/07/22 09:28:25;;;;;;;7.03;4.63;;;26.50;58.90;;;27.65;38.76;95461.06;5015969;28;20256;-83
2021/07/22 09:31:03;;;;;;;6.05;4.35;;;26.60;58.50;;;27.74;39.03;95464.69;4999810;28;20697;-82
2021/07/22 09:33:43;;;;;;;7.47;4.65;;;26.70;58.40;;;27.84;39.27;95469.16;5015853;28;20204;-82
2021/07/22 09:36:20;;;;;;;4.97;4.47;;;26.90;58.70;;;27.97;39.05;95464.97;4983465;28;20247;-83
2021/07/22 09:38:48;;;;;;;5.10;4.15;;;27.00;58.50;;;28.03;38.67;95463.03;5015854;28;20259;-82
2021/07/22 09:41:23;;;;;;;5.63;4.60;;;27.10;58.00;;;28.17;37.98;95460.44;4999916;28;20235;-82
2021/07/22 09:43:51;;;;;;;5.30;4.55;;;27.20;57.10;;;28.27;38.71;95462.97;5015942;28;20204;-83
2021/07/22 09:46:18;;;;;;;4.72;4.13;;;27.30;57.60;;;28.42;37.83;95464.69;4999461;28;20216;-83
2021/07/22 09:49:09;;;;;;;4.88;4.38;;;27.40;58.80;;;28.55;37.77;95455.84;4999303;28;20574;-83
2021/07/22 09:51:38;;;;;;;4.95;4.40;;;27.50;57.30;;;28.62;37.95;95458.16;4999941;28;20630;-82
2021/07/22 09:54:10;;;;;;;6.53;4.47;;;27.60;56.70;;;28.70;37.49;95454.81;5016204;28;20219;-83
2021/07/22 09:56:41;;;;;;;5.47;4.30;;;27.80;55.80;;;28.82;37.16;95454.38;5000021;28;20207;-83
2021/07/22 09:59:09;;;;;;;4.40;3.85;;;27.90;55.40;;;28.91;36.77;95451.78;5016110;28;20204;-83
2021/07/22 10:01:45;;;;;;;4.75;4.25;;;28.00;55.90;;;28.94;36.18;95450.41;4999547;28;20274;-83
2021/07/22 10:04:14;;;;;;;5.00;4.50;;;28.00;55.40;;;28.97;36.48;95455.22;5016122;28;20180;-83
2021/07/22 10:06:44;;;;;;;6.90;4.35;;;28.10;54.90;;;28.96;36.14;95450.91;5015785;28;20201;-83
2021/07/22 10:09:20;;;;;;;8.15;4.30;;;28.10;54.40;;;28.93;36.11;95446.91;4999250;28;20634;-82
2021/07/22 10:11:48;;;;;;;4.68;4.20;;;28.20;54.20;;;28.91;35.84;95446.38;5015209;28;20195;-82
2021/07/22 10:14:18;;;;;;;4.68;4.10;;;28.20;54.10;;;28.95;36.19;95450.09;4982859;28;20292;-82
2021/07/22 10:16:49;;;;;;;4.97;4.30;;;28.20;54.40;;;29.03;36.02;95440.53;4999145;28;20483;-83
2021/07/22 10:19:17;;;;;;;4.70;4.20;;;28.20;54.00;;;29.05;35.49;95443.72;5015382;28;20259;-82
2021/07/22 10:21:44;;;;;;;4.82;4.20;;;28.20;54.00;;;28.95;35.12;95443.91;5015406;28;20253;-83
2021/07/22 10:24:12;;;;;;;4.70;4.30;;;28.20;53.60;;;28.93;35.32;95449.59;4983285;28;20326;-83
2021/07/22 10:26:40;;;;;;;4.75;4.35;;;28.20;53.60;;;28.91;35.43;95444.47;4983358;28;20203;-82
2021/07/22 10:29:07;;;;;;;4.72;4.28;;;28.20;54.20;;;28.92;35.64;95445.28;4999128;28;20305;-82
2021/07/22 10:31:40;;;;;;;5.10;4.20;;;28.20;54.10;;;28.97;35.30;95447.91;4999062;28;20208;-83
2021/07/22 10:34:11;;;;;;;4.80;4.20;;;28.20;53.40;;;28.93;35.10;95444.19;5015686;28;20205;-83
2021/07/22 10:36:43;;;;;;;5.72;4.40;;;28.20;53.70;;;28.93;35.44;95449.59;5015936;28;20219;-82